MSC Maeva — H9TF — position and weather

sailwx.info

Track history (hours):
 
Tides and Currents Weather Stations Pressure Air Temp Water Temp Dewpoint Dewpoint Depression Visibility Wind Speed Wind Dir Waves Ship Positions

MSC Maeva

Last reported at 2017-Feb-24 02:11 UTC. Time now 2017-Feb-24 03:49 UTC.
Position N 31°58' W 080°39'.

Type: Ship (hazmat cat A). MMSI: 371851000.

Date/timePositionNaut miles runAvg speedWind from/ knotsBaromVisibWave heightAir tempDewpointWater temp
2017-Feb-24 02:11N 31°58' W 080°39'0 0.0
2017-Feb-23 22:20N 31°58' W 080°39'0 0.0
2017-Feb-23 21:26N 31°58' W 080°39'0 0.0
2017-Feb-23 20:33N 31°58' W 080°39'0 0.5
2017-Feb-23 19:33N 31°58' W 080°39'8 8.0
2017-Feb-23 18:33N 31°58' W 080°30'373 8.3
2017-Feb-21 21:30N 36°48' W 075°45'9 9.6
2017-Feb-21 20:33N 36°54' W 075°55'1111.2
2017-Feb-21 19:33N 36°59' W 076°07'1111.0
2017-Feb-21 18:33N 36°56' W 076°20'3 2.8
2017-Feb-21 17:23N 36°52' W 076°21'0 0.0
2017-Feb-21 16:32N 36°52' W 076°21'0 0.0
2017-Feb-21 15:32N 36°52' W 076°21'0 0.0
2017-Feb-21 14:32N 36°52' W 076°21'0 0.0
2017-Feb-21 13:29N 36°52' W 076°21'0 0.0
2017-Feb-21 12:32N 36°52' W 076°21'0 0.0
2017-Feb-21 11:29N 36°52' W 076°21'0 0.0
2017-Feb-21 10:32N 36°52' W 076°21'0 0.0
2017-Feb-21 09:29N 36°52' W 076°21'0 0.0
2017-Feb-21 08:31N 36°52' W 076°21'0 0.0
2017-Feb-21 07:31N 36°52' W 076°21'0 0.0
2017-Feb-21 06:31N 36°52' W 076°21'0 0.0
2017-Feb-21 05:28N 36°52' W 076°21'0 0.0
2017-Feb-21 04:31N 36°52' W 076°21'0 0.0
2017-Feb-21 03:31N 36°52' W 076°21'0 0.0
2017-Feb-21 02:31N 36°52' W 076°21'0 0.0
2017-Feb-21 01:31N 36°52' W 076°21'0 0.0
2017-Feb-21 00:31N 36°52' W 076°21'3 3.1
2017-Feb-20 23:34N 36°55' W 076°20'1111.0
2017-Feb-20 22:34N 36°59' W 076°07'1211.8
2017-Feb-20 21:33N 36°54' W 075°54'10 9.9
2017-Feb-20 20:33N 36°49' W 075°43'6 5.5
2017-Feb-20 19:25N 36°49' W 075°35'1 0.6
2017-Feb-20 18:26N 36°49' W 075°35'232 5.6
2017-Feb-19 01:19N 40°25' W 073°47'6 7.3
2017-Feb-19 00:32N 40°28' W 073°53'1313.0
2017-Feb-18 23:34N 40°38' W 074°03'4 4.4
2017-Feb-18 22:33N 40°40' W 074°08'1 0.9
2017-Feb-18 21:31N 40°41' W 074°09'0 0.0
2017-Feb-18 20:31N 40°41' W 074°09'0 0.0
2017-Feb-18 19:31N 40°41' W 074°09'0 0.0
2017-Feb-18 18:31N 40°41' W 074°09'0 0.0
2017-Feb-18 17:31N 40°41' W 074°09'0 0.0
2017-Feb-18 16:31N 40°41' W 074°09'0 0.0
2017-Feb-18 15:31N 40°41' W 074°09'0 0.0
2017-Feb-18 14:31N 40°41' W 074°09'0 0.0
2017-Feb-18 13:31N 40°41' W 074°09'0 0.0
2017-Feb-18 12:31N 40°41' W 074°09'0 0.0
2017-Feb-18 11:31N 40°41' W 074°09'0 0.0
2017-Feb-18 10:31N 40°41' W 074°09'0 0.0
2017-Feb-18 09:31N 40°41' W 074°09'0 0.0
2017-Feb-18 08:31N 40°41' W 074°09'0 0.0
2017-Feb-18 07:31N 40°41' W 074°09'0 0.0
2017-Feb-18 06:31N 40°41' W 074°09'0 0.0
2017-Feb-18 05:31N 40°41' W 074°09'0 0.0
2017-Feb-18 04:31N 40°41' W 074°09'0 0.0
2017-Feb-18 03:31N 40°41' W 074°09'0 0.0
2017-Feb-18 02:31N 40°41' W 074°09'0 0.0
2017-Feb-18 01:31N 40°41' W 074°09'0 0.0
2017-Feb-18 00:31N 40°41' W 074°09'0 0.0
2017-Feb-17 23:31N 40°41' W 074°09'0 0.0
2017-Feb-17 22:31N 40°41' W 074°09'0 0.0
2017-Feb-17 21:31N 40°41' W 074°09'0 0.0
2017-Feb-17 20:34N 40°41' W 074°09'0 0.0
2017-Feb-17 19:34N 40°41' W 074°09'0 0.0
2017-Feb-17 18:33N 40°41' W 074°09'0 0.0
2017-Feb-17 17:33N 40°41' W 074°09'0 0.0
2017-Feb-17 16:27N 40°41' W 074°09'0 0.0
2017-Feb-17 15:33N 40°41' W 074°09'0 0.0
2017-Feb-17 14:33N 40°41' W 074°09'0 0.0
2017-Feb-17 13:33N 40°41' W 074°09'0 0.0
2017-Feb-17 12:33N 40°41' W 074°09'0 0.0
2017-Feb-17 11:33N 40°41' W 074°09'0 0.0
2017-Feb-17 10:33N 40°41' W 074°09'0 0.0
2017-Feb-17 09:33N 40°41' W 074°09'0 0.0
2017-Feb-17 08:33N 40°41' W 074°09'0 0.0
2017-Feb-17 07:33N 40°41' W 074°09'0 0.0
2017-Feb-17 06:33N 40°41' W 074°09'0 0.0
2017-Feb-17 05:33N 40°41' W 074°09'0 0.0
2017-Feb-17 04:33N 40°41' W 074°09'0 0.0
2017-Feb-17 03:33N 40°41' W 074°09'3 2.5
2017-Feb-17 02:33N 40°38' W 074°09'5 5.3
2017-Feb-17 01:33N 40°36' W 074°02'1 0.7
2017-Feb-17 00:33N 40°36' W 074°02'0 0.0
2017-Feb-16 23:33N 40°36' W 074°02'0 0.1
2017-Feb-16 22:33N 40°36' W 074°02'0 0.1
2017-Feb-16 21:33N 40°36' W 074°02'1 0.6
2017-Feb-16 20:33N 40°35' W 074°02'9 8.8
2017-Feb-16 19:34N 40°29' W 073°54'7 7.3
2017-Feb-16 18:33N 40°28' W 073°44'2 1.6
2017-Feb-16 17:31N 40°29' W 073°42'0 0.0
2017-Feb-16 15:30N 40°29' W 073°42'5 4.8
2017-Feb-16 14:33N 40°25' W 073°41'  
Track history (hours):
 
Tides and Currents Weather Stations Pressure Air Temp Water Temp Dewpoint Dewpoint Depression Visibility Wind Speed Wind Dir Waves Ship Positions

MSC Maeva

Last reported at 2017-Feb-24 02:11 UTC. Time now 2017-Feb-24 03:49 UTC.
Position N 31°58' W 080°39'.

Type: Ship (hazmat cat A). MMSI: 371851000.

Date/timePositionNaut miles runAvg speedWind from/ knotsBaromVisibWave heightAir tempDewpointWater temp
2017-Feb-24 02:11N 31°58' W 080°39'0 0.0
2017-Feb-23 22:20N 31°58' W 080°39'0 0.0
2017-Feb-23 21:26N 31°58' W 080°39'0 0.0
2017-Feb-23 20:33N 31°58' W 080°39'0 0.5
2017-Feb-23 19:33N 31°58' W 080°39'8 8.0
2017-Feb-23 18:33N 31°58' W 080°30'373 8.3
2017-Feb-21 21:30N 36°48' W 075°45'9 9.6
2017-Feb-21 20:33N 36°54' W 075°55'1111.2
2017-Feb-21 19:33N 36°59' W 076°07'1111.0
2017-Feb-21 18:33N 36°56' W 076°20'3 2.8
2017-Feb-21 17:23N 36°52' W 076°21'0 0.0
2017-Feb-21 16:32N 36°52' W 076°21'0 0.0
2017-Feb-21 15:32N 36°52' W 076°21'0 0.0
2017-Feb-21 14:32N 36°52' W 076°21'0 0.0
2017-Feb-21 13:29N 36°52' W 076°21'0 0.0
2017-Feb-21 12:32N 36°52' W 076°21'0 0.0
2017-Feb-21 11:29N 36°52' W 076°21'0 0.0
2017-Feb-21 10:32N 36°52' W 076°21'0 0.0
2017-Feb-21 09:29N 36°52' W 076°21'0 0.0
2017-Feb-21 08:31N 36°52' W 076°21'0 0.0
2017-Feb-21 07:31N 36°52' W 076°21'0 0.0
2017-Feb-21 06:31N 36°52' W 076°21'0 0.0
2017-Feb-21 05:28N 36°52' W 076°21'0 0.0
2017-Feb-21 04:31N 36°52' W 076°21'0 0.0
2017-Feb-21 03:31N 36°52' W 076°21'0 0.0
2017-Feb-21 02:31N 36°52' W 076°21'0 0.0
2017-Feb-21 01:31N 36°52' W 076°21'0 0.0
2017-Feb-21 00:31N 36°52' W 076°21'3 3.1
2017-Feb-20 23:34N 36°55' W 076°20'1111.0
2017-Feb-20 22:34N 36°59' W 076°07'1211.8
2017-Feb-20 21:33N 36°54' W 075°54'10 9.9
2017-Feb-20 20:33N 36°49' W 075°43'6 5.5
2017-Feb-20 19:25N 36°49' W 075°35'1 0.6
2017-Feb-20 18:26N 36°49' W 075°35'232 5.6
2017-Feb-19 01:19N 40°25' W 073°47'6 7.3
2017-Feb-19 00:32N 40°28' W 073°53'1313.0
2017-Feb-18 23:34N 40°38' W 074°03'4 4.4
2017-Feb-18 22:33N 40°40' W 074°08'1 0.9
2017-Feb-18 21:31N 40°41' W 074°09'0 0.0
2017-Feb-18 20:31N 40°41' W 074°09'0 0.0
2017-Feb-18 19:31N 40°41' W 074°09'0 0.0
2017-Feb-18 18:31N 40°41' W 074°09'0 0.0
2017-Feb-18 17:31N 40°41' W 074°09'0 0.0
2017-Feb-18 16:31N 40°41' W 074°09'0 0.0
2017-Feb-18 15:31N 40°41' W 074°09'0 0.0
2017-Feb-18 14:31N 40°41' W 074°09'0 0.0
2017-Feb-18 13:31N 40°41' W 074°09'0 0.0
2017-Feb-18 12:31N 40°41' W 074°09'0 0.0
2017-Feb-18 11:31N 40°41' W 074°09'0 0.0
2017-Feb-18 10:31N 40°41' W 074°09'0 0.0
2017-Feb-18 09:31N 40°41' W 074°09'0 0.0
2017-Feb-18 08:31N 40°41' W 074°09'0 0.0
2017-Feb-18 07:31N 40°41' W 074°09'0 0.0
2017-Feb-18 06:31N 40°41' W 074°09'0 0.0
2017-Feb-18 05:31N 40°41' W 074°09'0 0.0
2017-Feb-18 04:31N 40°41' W 074°09'0 0.0
2017-Feb-18 03:31N 40°41' W 074°09'0 0.0
2017-Feb-18 02:31N 40°41' W 074°09'0 0.0
2017-Feb-18 01:31N 40°41' W 074°09'0 0.0
2017-Feb-18 00:31N 40°41' W 074°09'0 0.0
2017-Feb-17 23:31N 40°41' W 074°09'0 0.0
2017-Feb-17 22:31N 40°41' W 074°09'0 0.0
2017-Feb-17 21:31N 40°41' W 074°09'0 0.0
2017-Feb-17 20:34N 40°41' W 074°09'0 0.0
2017-Feb-17 19:34N 40°41' W 074°09'0 0.0
2017-Feb-17 18:33N 40°41' W 074°09'0 0.0
2017-Feb-17 17:33N 40°41' W 074°09'0 0.0
2017-Feb-17 16:27N 40°41' W 074°09'0 0.0
2017-Feb-17 15:33N 40°41' W 074°09'0 0.0
2017-Feb-17 14:33N 40°41' W 074°09'0 0.0
2017-Feb-17 13:33N 40°41' W 074°09'0 0.0
2017-Feb-17 12:33N 40°41' W 074°09'0 0.0
2017-Feb-17 11:33N 40°41' W 074°09'0 0.0
2017-Feb-17 10:33N 40°41' W 074°09'0 0.0
2017-Feb-17 09:33N 40°41' W 074°09'0 0.0
2017-Feb-17 08:33N 40°41' W 074°09'0 0.0
2017-Feb-17 07:33N 40°41' W 074°09'0 0.0
2017-Feb-17 06:33N 40°41' W 074°09'0 0.0
2017-Feb-17 05:33N 40°41' W 074°09'0 0.0
2017-Feb-17 04:33N 40°41' W 074°09'0 0.0
2017-Feb-17 03:33N 40°41' W 074°09'3 2.5
2017-Feb-17 02:33N 40°38' W 074°09'5 5.3
2017-Feb-17 01:33N 40°36' W 074°02'1 0.7
2017-Feb-17 00:33N 40°36' W 074°02'0 0.0
2017-Feb-16 23:33N 40°36' W 074°02'0 0.1
2017-Feb-16 22:33N 40°36' W 074°02'0 0.1
2017-Feb-16 21:33N 40°36' W 074°02'1 0.6
2017-Feb-16 20:33N 40°35' W 074°02'9 8.8
2017-Feb-16 19:34N 40°29' W 073°54'7 7.3
2017-Feb-16 18:33N 40°28' W 073°44'2 1.6
2017-Feb-16 17:31N 40°29' W 073°42'0 0.0
2017-Feb-16 15:30N 40°29' W 073°42'5 4.8
2017-Feb-16 14:33N 40°25' W 073°41'  

Dump ship's entire track history